createdAt,value
2018-05-09T03:05:03.047Z,14
2018-05-09T03:05:23.985Z,14
2018-05-09T03:05:44.425Z,14
2018-05-09T04:30:29.929Z,13.4
2018-05-09T04:30:50.271Z,13.4
2018-05-09T04:31:11.412Z,13.6
2018-05-09T04:31:31.857Z,13.5
2018-05-09T04:31:52.396Z,13.5
2018-05-09T04:32:13.320Z,13.5
2018-05-09T04:32:34.436Z,13.5
2018-05-09T04:32:55.432Z,13.5
2018-05-09T04:33:15.877Z,13.5
2018-05-09T04:33:37.317Z,13.6
2018-05-09T04:33:57.745Z,13.6
2018-05-09T04:34:18.104Z,13.5
2018-05-09T04:34:39.326Z,13.5
2018-05-09T04:34:59.446Z,13.6
2018-05-09T04:35:19.745Z,13.5
2018-05-09T04:35:39.803Z,13.5
2018-05-09T04:39:51.260Z,13.7
2018-05-09T04:40:11.760Z,13.7
2018-05-09T04:40:32.056Z,13.7
2018-05-09T04:40:53.251Z,13.8
2018-05-09T04:41:13.506Z,13.7
2018-05-09T04:41:34.767Z,13.8
2018-05-09T04:41:55.267Z,13.8
2018-05-09T04:42:16.120Z,13.7
2018-05-09T04:42:36.267Z,13.8
2018-05-09T04:42:58.840Z,13.8
2018-05-09T04:43:19.992Z,13.8
2018-05-09T04:43:40.504Z,13.8
2018-05-09T04:44:00.866Z,13.8
2018-05-09T04:44:21.855Z,13.8
2018-05-09T04:44:42.159Z,13.9
2018-05-09T04:45:02.550Z,13.9
2018-05-09T04:45:22.855Z,13.9
2018-05-09T04:45:43.205Z,13.9
2018-05-09T04:46:03.678Z,13.9
2018-05-09T04:46:24.007Z,13.9
2018-05-09T04:46:44.707Z,14
2018-05-09T04:47:05.097Z,14
2018-05-09T04:47:25.946Z,13.9
2018-05-09T04:47:46.928Z,13.9
2018-05-09T04:48:07.921Z,14
2018-05-09T04:48:28.943Z,14
2018-05-09T04:48:49.886Z,14
2018-05-09T04:49:10.961Z,14
2018-05-09T04:49:31.241Z,14
2018-05-09T04:49:52.382Z,14.1
2018-05-09T04:50:12.742Z,13.9
2018-05-09T04:50:34.997Z,14
2018-05-09T04:50:55.618Z,14.1
2018-05-09T04:51:16.064Z,14.1
2018-05-09T04:51:36.217Z,14.1
2018-05-09T04:51:56.645Z,14.2
2018-05-09T04:52:17.933Z,14.2
2018-05-09T04:52:38.819Z,14.1
2018-05-09T04:52:59.299Z,14.2
2018-05-09T04:53:19.783Z,14.2
2018-05-09T04:53:40.344Z,14.2
2018-05-09T04:54:00.636Z,14.2
2018-05-09T04:54:22.410Z,14.2
2018-05-09T04:54:43.125Z,14.3
2018-05-09T04:55:03.608Z,14.3
2018-05-09T04:55:23.987Z,14.3
2018-05-09T04:55:44.730Z,14.3
2018-05-09T04:56:05.367Z,14.2
2018-05-09T04:56:27.325Z,14.4
2018-05-09T04:56:48.058Z,14.3
2018-05-09T04:57:08.421Z,14.3
2018-05-09T04:57:28.692Z,14.3
2018-05-09T04:57:48.943Z,14.3
2018-05-09T04:58:09.169Z,14.3
2018-05-09T04:58:29.416Z,14.3
2018-05-09T04:58:49.598Z,14.4
2018-05-09T04:59:09.823Z,14.4
2018-05-09T04:59:30.069Z,14.4
2018-05-09T04:59:50.284Z,14.4
2018-05-09T05:00:10.344Z,14.4
2018-05-09T05:00:30.554Z,14.4
2018-05-09T05:00:51.233Z,14.4
2018-05-09T05:01:12.285Z,14.4
2018-05-09T05:01:32.583Z,14.5
2018-05-09T05:01:53.075Z,14.5
2018-05-09T05:02:13.954Z,14.5
2018-05-09T05:02:35.946Z,14.5
2018-05-09T05:02:56.935Z,14.6
2018-05-09T05:03:17.453Z,14.6
2018-05-09T05:03:37.995Z,14.6
2018-05-09T05:03:58.415Z,14.6
2018-05-09T05:04:19.016Z,14.6
2018-05-09T05:04:39.494Z,14.6
2018-05-09T05:05:00.172Z,14.6
2018-05-09T05:05:20.630Z,14.6
2018-05-09T05:05:41.225Z,14.7
2018-05-09T05:06:03.938Z,14.6
2018-05-09T05:06:25.441Z,14.7
2018-05-09T05:06:45.966Z,14.7
2018-05-09T05:07:07.457Z,14.6
2018-05-09T05:07:28.580Z,14.7
2018-05-09T05:07:49.012Z,14.6
2018-05-09T05:08:09.996Z,14.7
2018-05-09T05:08:30.874Z,14.7
2018-05-09T05:08:51.861Z,14.7
2018-05-09T05:09:12.161Z,14.8
2018-05-09T05:09:32.427Z,14.8
2018-05-09T05:09:52.786Z,14.7
2018-05-09T05:10:13.161Z,14.8
2018-05-09T05:10:34.484Z,14.8
2018-05-09T05:10:54.741Z,14.8
2018-05-09T05:11:15.034Z,14.8
2018-05-09T05:11:35.333Z,14.8
2018-05-09T05:11:55.629Z,14.8
2018-05-09T05:12:15.841Z,14.8
2018-05-09T05:12:36.169Z,14.9
2018-05-09T05:12:57.218Z,14.9
2018-05-09T05:13:18.344Z,15
2018-05-09T05:13:38.595Z,14.9
2018-05-09T05:13:58.895Z,15
2018-05-09T05:14:19.199Z,15
2018-05-09T05:14:39.445Z,15.1
2018-05-09T05:15:00.356Z,15
2018-05-09T05:15:20.797Z,15
2018-05-09T05:15:42.088Z,15.1
2018-05-09T05:16:02.647Z,15
2018-05-09T05:16:23.300Z,15.1
2018-05-09T05:16:43.793Z,15
2018-05-09T05:17:04.065Z,15
2018-05-09T05:17:25.559Z,15.1
2018-05-09T05:17:45.804Z,15
2018-05-09T05:18:07.984Z,15.1
2018-05-09T05:18:28.382Z,15
2018-05-09T05:18:48.808Z,14.9
2018-05-09T05:19:10.280Z,15
2018-05-09T05:19:30.653Z,15
2018-05-09T05:19:51.120Z,15
2018-05-09T05:20:11.425Z,15
2018-05-09T05:20:31.981Z,15
2018-05-09T05:20:52.327Z,15
2018-05-09T05:21:12.705Z,15
2018-05-09T05:21:33.265Z,15
2018-05-09T05:21:54.268Z,15
2018-05-09T05:22:16.391Z,15
2018-05-09T05:22:38.969Z,15
2018-05-09T05:23:01.503Z,15
2018-05-09T05:23:23.067Z,14.9
2018-05-09T05:23:43.965Z,15
2018-05-09T05:24:04.345Z,15.1
2018-05-09T05:24:24.842Z,15.1
2018-05-09T05:24:46.058Z,15
2018-05-09T05:25:06.396Z,15
2018-05-09T05:25:26.966Z,15.1
2018-05-09T05:25:47.914Z,15
2018-05-09T05:26:08.527Z,15.1
2018-05-09T05:26:29.011Z,15
2018-05-09T05:26:49.970Z,15.1
2018-05-09T05:27:11.539Z,15.1
2018-05-09T05:27:32.247Z,15
2018-05-09T05:27:53.350Z,15.1
2018-05-09T05:28:14.467Z,15.1
2018-05-09T05:28:34.950Z,15.1
2018-05-09T05:28:56.491Z,15.1
2018-05-09T05:29:18.395Z,15.1
2018-05-09T05:29:39.025Z,15.1
2018-05-09T05:29:59.346Z,15.1
2018-05-09T05:30:19.514Z,15.2
2018-05-09T05:30:41.768Z,15.1
2018-05-09T05:31:01.892Z,15.1
2018-05-09T05:31:22.807Z,15.2
2018-05-09T05:31:44.009Z,15.2
2018-05-09T05:32:05.427Z,15.2
2018-05-09T05:32:26.161Z,15.2
2018-05-09T05:32:46.897Z,15.3
2018-05-09T05:33:07.869Z,15.3
2018-05-09T05:33:29.090Z,15.3
2018-05-09T05:33:50.294Z,15.3
2018-05-09T05:34:10.627Z,15.3
2018-05-09T05:34:31.888Z,15.2
2018-05-09T05:34:52.189Z,15.2
2018-05-09T05:35:12.279Z,15.3
2018-05-09T05:35:32.723Z,15.3
2018-05-09T05:35:53.104Z,15.4
2018-05-09T05:36:13.677Z,15.3
2018-05-09T05:36:34.086Z,15.3
2018-05-09T05:36:54.446Z,15.3
2018-05-09T05:37:15.345Z,15.3
2018-05-09T05:37:35.583Z,15.4
2018-05-09T05:37:55.811Z,15.3
2018-05-09T05:38:16.226Z,15.4
2018-05-09T05:38:36.534Z,15.5
2018-05-09T05:38:57.306Z,15.4
2018-05-09T05:39:17.611Z,15.4
2018-05-09T05:39:38.558Z,15.5
2018-05-09T05:39:58.979Z,15.4
2018-05-09T05:40:19.177Z,15.5
2018-05-09T05:40:39.381Z,15.4
2018-05-09T05:40:59.594Z,15.4
2018-05-09T05:41:19.841Z,15.5
2018-05-09T05:41:40.058Z,15.5
2018-05-09T05:42:00.296Z,15.5
2018-05-09T05:42:20.570Z,15.5
2018-05-09T05:42:41.826Z,15.6
2018-05-09T05:43:02.110Z,15.5
2018-05-09T05:43:23.528Z,15.6
2018-05-09T05:43:44.783Z,15.6
2018-05-09T05:44:05.030Z,15.6
2018-05-09T05:44:25.293Z,15.6
2018-05-09T05:44:45.895Z,15.6
2018-05-09T05:45:06.993Z,15.6
2018-05-09T05:45:27.475Z,15.6
2018-05-09T05:45:47.709Z,15.7
2018-05-09T05:46:08.188Z,15.6
2018-05-09T05:46:28.450Z,15.7
2018-05-09T05:46:48.838Z,15.6
2018-05-09T05:47:09.987Z,15.7
2018-05-09T05:47:30.327Z,15.7
2018-05-09T05:47:51.336Z,15.7
2018-05-09T05:48:12.457Z,15.7
2018-05-09T05:48:32.851Z,15.7
2018-05-09T05:48:53.330Z,15.7
2018-05-09T05:49:14.040Z,15.7
2018-05-09T05:49:36.519Z,15.7
2018-05-09T05:49:58.804Z,15.7
2018-05-09T05:50:19.124Z,15.8
2018-05-09T05:50:39.553Z,15.7
2018-05-09T05:50:59.848Z,15.7
2018-05-09T05:51:20.458Z,15.8
2018-05-09T05:51:40.841Z,15.7
2018-05-09T05:52:02.235Z,15.8
2018-05-09T05:52:22.624Z,15.8
2018-05-09T05:52:42.901Z,15.8
2018-05-09T05:53:03.391Z,15.8
2018-05-09T05:53:23.767Z,15.8
2018-05-09T05:53:45.042Z,15.8
2018-05-09T05:54:05.272Z,15.8
2018-05-09T05:54:26.422Z,15.8
2018-05-09T05:54:47.007Z,15.8
2018-05-09T05:55:07.476Z,15.8
2018-05-09T05:55:29.522Z,15.9
2018-05-09T05:55:49.840Z,15.9
2018-05-09T05:56:10.362Z,15.9
2018-05-09T05:56:30.736Z,15.9
2018-05-09T05:56:51.194Z,16
2018-05-09T05:57:11.672Z,15.9
2018-05-09T05:57:32.179Z,15.9
2018-05-09T05:57:53.425Z,15.9
2018-05-09T05:58:13.823Z,15.9
2018-05-09T05:58:34.113Z,16
2018-05-09T05:58:54.519Z,16
2018-05-09T05:59:15.036Z,16
2018-05-09T05:59:35.382Z,16
2018-05-09T05:59:56.153Z,16
2018-05-09T06:00:17.374Z,16
2018-05-09T06:00:37.833Z,16
2018-05-09T06:00:58.349Z,16
2018-05-09T06:01:20.066Z,16
2018-05-09T06:01:40.653Z,16.1
2018-05-09T06:02:01.003Z,16.1
2018-05-09T06:02:21.370Z,16.1
2018-05-09T06:02:42.507Z,16.1
2018-05-09T06:03:04.446Z,16.1
2018-05-09T06:03:36.424Z,16.2
2018-05-09T06:03:58.072Z,16.2
2018-05-09T06:04:18.481Z,16.2
2018-05-09T06:04:38.898Z,16.2
2018-05-09T06:05:01.492Z,16.3
2018-05-09T06:05:24.024Z,16.1
2018-05-09T06:05:44.839Z,16.3
2018-05-09T06:06:05.195Z,16.2
2018-05-09T06:06:26.445Z,16.4
2018-05-09T06:06:47.477Z,16.3
2018-05-09T06:07:07.821Z,16.3
2018-05-09T06:07:28.105Z,16.4
2018-05-09T06:07:49.583Z,16.4
2018-05-09T06:08:09.661Z,16.4
2018-05-09T06:08:30.900Z,16.4
2018-05-09T06:08:51.346Z,16.4
2018-05-09T06:09:11.669Z,16.4
2018-05-09T06:09:31.987Z,16.5
2018-05-09T06:09:52.935Z,16.5
2018-05-09T06:10:13.390Z,16.5
2018-05-09T06:10:34.366Z,16.5
2018-05-09T06:10:55.365Z,16.6
2018-05-09T06:11:16.301Z,16.5
2018-05-09T06:11:38.023Z,16.5
2018-05-09T06:11:59.004Z,16.5
2018-05-09T06:12:19.288Z,16.6
2018-05-09T06:12:39.427Z,16.6
2018-05-09T06:12:59.517Z,16.6
2018-05-09T06:13:19.841Z,16.8
2018-05-09T06:13:40.202Z,16.7
2018-05-09T06:14:00.474Z,16.7
2018-05-09T06:14:21.333Z,16.6
2018-05-09T06:14:42.183Z,16.8
2018-05-09T06:15:02.589Z,16.7
2018-05-09T06:15:23.507Z,16.7
2018-05-09T06:15:44.416Z,16.8
2018-05-09T06:16:04.556Z,16.8
2018-05-09T06:16:24.895Z,16.8
2018-05-09T06:16:45.164Z,16.9
2018-05-09T06:17:05.546Z,16.9
2018-05-09T06:17:26.483Z,16.9
2018-05-09T06:17:46.920Z,17
2018-05-09T06:18:07.215Z,16.9
2018-05-09T06:18:27.535Z,17
2018-05-09T06:18:47.798Z,17
2018-05-09T06:19:08.189Z,17
2018-05-09T06:19:28.798Z,17
2018-05-09T06:19:48.897Z,17.1
2018-05-09T06:20:09.131Z,17.1
2018-05-09T06:20:29.397Z,17
2018-05-09T06:20:50.472Z,17.1
2018-05-09T06:21:11.520Z,17.2
2018-05-09T06:21:31.830Z,17.1
2018-05-09T06:21:52.343Z,17.2
2018-05-09T06:22:13.193Z,17.2
2018-05-09T06:22:33.614Z,17.1
2018-05-09T06:22:54.917Z,17.1
2018-05-09T06:23:15.309Z,17.1
2018-05-09T06:23:35.574Z,17.2
2018-05-09T06:23:56.148Z,17.2
2018-05-09T06:24:16.379Z,17.3
2018-05-09T06:24:36.924Z,17.3
2018-05-09T06:24:58.017Z,17.3
2018-05-09T06:25:18.359Z,17.3
2018-05-09T06:25:41.990Z,17.4
2018-05-09T06:26:02.020Z,17.3
2018-05-09T06:26:22.064Z,17.4
2018-05-09T06:26:42.383Z,17.4
2018-05-09T06:27:02.600Z,17.4
2018-05-09T06:27:22.880Z,17.4
2018-05-09T06:27:43.255Z,17.4
2018-05-09T06:28:03.470Z,17.5
2018-05-09T06:28:24.309Z,17.5
2018-05-09T06:28:45.290Z,17.5
2018-05-09T06:29:06.553Z,17.5
2018-05-09T06:29:26.986Z,17.6
2018-05-09T06:29:47.404Z,17.6
2018-05-09T06:30:07.923Z,17.6
2018-05-09T06:30:28.088Z,17.6
2018-05-09T06:30:49.036Z,17.7
2018-05-09T06:31:09.399Z,17.6
2018-05-09T06:31:29.742Z,17.6
2018-05-09T06:31:50.070Z,17.6
2018-05-09T06:32:10.949Z,17.7
2018-05-09T06:32:32.035Z,17.6
2018-05-09T06:32:52.405Z,17.7
2018-05-09T06:33:13.530Z,17.7
2018-05-09T06:33:35.172Z,17.7
2018-05-09T06:33:55.557Z,17.7
2018-05-09T06:34:16.447Z,17.7
2018-05-09T06:34:36.947Z,17.7
2018-05-09T06:34:57.375Z,17.7
2018-05-09T06:35:17.683Z,17.7
2018-05-09T06:35:38.110Z,17.8
2018-05-09T06:35:58.553Z,17.7
2018-05-09T06:36:18.850Z,17.7
2018-05-09T06:36:39.591Z,17.8
2018-05-09T06:36:59.854Z,17.8
2018-05-09T06:37:21.023Z,17.8
2018-05-09T06:37:41.224Z,17.8
2018-05-09T06:38:01.528Z,17.9
2018-05-09T06:38:21.875Z,17.9
2018-05-09T06:38:42.330Z,17.9
2018-05-09T06:39:02.831Z,17.9
2018-05-09T06:39:23.171Z,18
2018-05-09T06:39:43.616Z,18
2018-05-09T06:40:03.792Z,18
2018-05-09T06:40:25.042Z,18
2018-05-09T06:40:45.449Z,18
2018-05-09T06:41:05.816Z,18
2018-05-09T06:41:26.135Z,18
2018-05-09T06:41:47.823Z,18.1
2018-05-09T06:42:08.974Z,18.1
2018-05-09T06:42:29.374Z,18.1
2018-05-09T06:42:49.886Z,18.1
2018-05-09T06:43:10.610Z,18.1
2018-05-09T06:43:30.996Z,18.1
2018-05-09T06:43:51.539Z,18.1
2018-05-09T06:44:11.748Z,18.1
2018-05-09T06:44:33.022Z,18.1
2018-05-09T06:44:55.483Z,18.2
2018-05-09T06:45:15.764Z,18.2
2018-05-09T06:45:36.145Z,18.2
2018-05-09T06:45:56.806Z,18.2
2018-05-09T06:46:17.393Z,18.1
2018-05-09T06:46:38.767Z,18.2
2018-05-09T06:46:59.557Z,18.1
2018-05-09T06:47:20.335Z,18.1
2018-05-09T06:47:42.564Z,18.2
2018-05-09T06:48:03.489Z,18.2
2018-05-09T06:48:24.149Z,18.3
2018-05-09T06:48:45.545Z,18.2
2018-05-09T06:49:06.148Z,18.2
2018-05-09T06:49:26.504Z,18.3
2018-05-09T06:49:46.977Z,18.2
2018-05-09T06:50:07.444Z,18.4
2018-05-09T06:50:28.302Z,18.4
2018-05-09T06:50:48.605Z,18.3
2018-05-09T06:51:10.173Z,18.3
2018-05-09T06:51:30.727Z,18.4
2018-05-09T06:51:51.925Z,18.4
2018-05-09T06:52:12.370Z,18.3
2018-05-09T06:52:36.786Z,18.4
2018-05-09T06:52:57.146Z,18.4
2018-05-09T06:53:17.715Z,18.5
2018-05-09T06:53:38.962Z,18.4
2018-05-09T06:53:59.354Z,18.4
2018-05-09T06:54:19.448Z,18.5
2018-05-09T06:54:40.537Z,18.5
2018-05-09T06:55:01.034Z,18.5
2018-05-09T06:55:21.588Z,18.5
2018-05-09T06:55:46.506Z,18.5
2018-05-09T06:56:06.825Z,18.6
2018-05-09T06:56:27.332Z,18.6
2018-05-09T06:56:47.456Z,18.6
2018-05-09T06:57:07.751Z,18.5
2018-05-09T06:57:29.036Z,18.6
2018-05-09T06:57:50.013Z,18.5
2018-05-09T06:58:10.407Z,18.6
2018-05-09T06:58:30.784Z,18.6
2018-05-09T06:58:51.261Z,18.6
2018-05-09T06:59:11.623Z,18.7
2018-05-09T06:59:32.545Z,18.6
2018-05-09T06:59:53.259Z,18.7
2018-05-09T07:00:14.144Z,18.7
2018-05-09T07:00:34.578Z,18.7
2018-05-09T07:00:54.963Z,18.7
2018-05-09T07:01:15.983Z,18.7
2018-05-09T07:01:36.353Z,18.7
2018-05-09T07:01:56.707Z,18.8
2018-05-09T07:02:17.050Z,18.8
2018-05-09T07:02:38.365Z,18.8
2018-05-09T07:02:59.009Z,18.8
2018-05-09T07:03:19.650Z,18.8
2018-05-09T07:03:39.970Z,18.8
2018-05-09T07:04:00.473Z,18.8
2018-05-09T07:04:21.383Z,18.9
2018-05-09T07:04:41.908Z,18.9
2018-05-09T07:05:02.409Z,18.8
2018-05-09T07:05:22.818Z,18.9
2018-05-09T07:05:43.192Z,18.8
2018-05-09T07:06:03.411Z,18.9
2018-05-09T07:06:25.235Z,18.8
2018-05-09T07:06:46.469Z,18.9
2018-05-09T07:07:06.801Z,18.9
2018-05-09T07:07:29.154Z,18.9
2018-05-09T07:07:49.687Z,18.9
2018-05-09T07:08:10.498Z,18.9
2018-05-09T07:08:31.034Z,19
2018-05-09T07:08:52.083Z,19
2018-05-09T07:09:12.522Z,18.9
2018-05-09T07:09:33.153Z,18.9
2018-05-09T07:09:54.462Z,19
2018-05-09T07:10:15.587Z,18.9
2018-05-09T07:10:36.115Z,18.9
2018-05-09T07:10:56.459Z,19
2018-05-09T07:11:16.763Z,18.9
2018-05-09T07:11:37.987Z,19
2018-05-09T07:11:58.953Z,19
2018-05-09T07:12:19.379Z,18.9
2018-05-09T07:12:39.703Z,19
2018-05-09T07:12:59.786Z,18.9
2018-05-09T07:13:20.139Z,19
2018-05-09T07:13:40.511Z,18.9
2018-05-09T07:14:01.986Z,18.9
2018-05-09T07:14:22.694Z,18.9
2018-05-09T07:14:43.219Z,18.9
2018-05-09T07:15:06.087Z,18.9
2018-05-09T07:15:26.642Z,18.9
2018-05-09T07:15:48.649Z,18.9
2018-05-09T07:16:10.394Z,18.9
2018-05-09T07:16:31.382Z,18.9
2018-05-09T07:16:51.849Z,18.9
2018-05-09T07:17:12.675Z,18.9
2018-05-09T07:17:33.157Z,18.9
2018-05-09T07:17:53.606Z,19
2018-05-09T07:18:14.098Z,18.9
2018-05-09T07:18:34.443Z,18.9
2018-05-09T07:18:55.266Z,18.9
2018-05-09T07:19:15.905Z,18.9
2018-05-09T07:19:38.470Z,18.9
2018-05-09T07:20:00.209Z,18.9
2018-05-09T07:20:20.617Z,18.9
2018-05-09T07:20:42.507Z,18.9
2018-05-09T07:21:02.970Z,18.9
2018-05-09T07:21:24.120Z,18.9
2018-05-09T07:21:44.493Z,18.9
2018-05-09T07:22:04.911Z,18.9
2018-05-09T07:22:25.366Z,18.9
2018-05-09T07:22:45.654Z,18.9
2018-05-09T07:23:07.015Z,18.9
2018-05-09T07:23:27.086Z,18.9
2018-05-09T07:23:47.568Z,18.9
2018-05-09T07:24:07.993Z,18.9
2018-05-09T07:24:28.523Z,18.9
2018-05-09T07:24:50.469Z,19
2018-05-09T07:25:14.010Z,18.9
2018-05-09T07:25:35.582Z,18.9
2018-05-09T07:25:56.102Z,18.9
2018-05-09T07:26:17.523Z,18.9
2018-05-09T07:26:37.948Z,19
2018-05-09T07:26:58.384Z,19
2018-05-09T07:27:18.654Z,18.9
2018-05-09T07:27:39.117Z,19
2018-05-09T07:27:59.668Z,18.9
2018-05-09T07:28:20.961Z,18.9
2018-05-09T07:28:41.902Z,19
2018-05-09T07:29:02.473Z,19
2018-05-09T07:29:23.512Z,19
2018-05-09T07:29:44.160Z,19
2018-05-09T07:30:04.975Z,19
2018-05-09T07:30:25.669Z,19
2018-05-09T07:30:46.902Z,19.2
2018-05-09T07:31:08.021Z,19.1
2018-05-09T07:31:28.934Z,19.2
2018-05-09T07:31:50.915Z,19.1
2018-05-09T07:32:11.550Z,19.2
2018-05-09T07:32:32.370Z,19.2
2018-05-09T07:32:53.585Z,19.1
2018-05-09T07:33:14.075Z,19.2
2018-05-09T07:33:34.561Z,19.2
2018-05-09T07:33:56.167Z,19.2
2018-05-09T07:34:17.434Z,19.3
2018-05-09T07:34:37.917Z,19.3
2018-05-09T07:34:58.456Z,19.2
2018-05-09T07:35:18.939Z,19.3
2018-05-09T07:35:39.742Z,19.3
2018-05-09T07:36:00.139Z,19.4
2018-05-09T07:36:21.497Z,19.3
2018-05-09T07:36:42.044Z,19.4
2018-05-09T07:37:04.525Z,19.5
2018-05-09T07:37:25.413Z,19.4
2018-05-09T07:37:48.461Z,19.5
2018-05-09T07:38:09.042Z,19.5
2018-05-09T07:38:29.784Z,19.5
2018-05-09T07:38:50.266Z,19.5
2018-05-09T07:39:10.855Z,19.5
2018-05-09T07:39:32.121Z,19.6
2018-05-09T07:39:52.692Z,19.6
2018-05-09T07:40:13.277Z,19.6
2018-05-09T07:40:34.966Z,19.6
2018-05-09T07:40:55.855Z,19.7
2018-05-09T07:41:16.312Z,19.6
2018-05-09T07:41:37.142Z,19.6
2018-05-09T07:41:59.505Z,19.6
2018-05-09T07:42:20.176Z,19.6
2018-05-09T07:42:40.811Z,19.6
2018-05-09T07:43:03.049Z,19.7
2018-05-09T07:43:23.535Z,19.7
2018-05-09T07:43:44.300Z,19.6
2018-05-09T07:44:05.465Z,19.7
2018-05-09T07:44:25.861Z,19.6
2018-05-09T07:44:46.488Z,19.7
2018-05-09T07:45:06.744Z,19.6
2018-05-09T07:45:29.087Z,19.7
2018-05-09T07:45:49.455Z,19.7
2018-05-09T07:46:10.036Z,19.7
2018-05-09T07:46:31.158Z,19.7
2018-05-09T07:46:51.451Z,19.6
2018-05-09T07:47:12.241Z,19.7
2018-05-09T07:47:33.643Z,19.7
2018-05-09T07:47:54.501Z,19.7
2018-05-09T07:48:16.009Z,19.7
2018-05-09T07:48:36.443Z,19.7
2018-05-09T07:48:57.297Z,19.8
2018-05-09T07:49:17.779Z,19.7
2018-05-09T07:49:39.942Z,19.7
2018-05-09T07:50:01.081Z,19.7
2018-05-09T07:50:21.754Z,19.7
2018-05-09T07:50:42.440Z,19.8
2018-05-09T07:51:03.158Z,19.8
2018-05-09T07:51:23.988Z,19.8
2018-05-09T07:51:45.630Z,19.8
2018-05-09T07:52:06.445Z,19.8
2018-05-09T07:52:27.845Z,19.8
2018-05-09T07:52:48.579Z,20
2018-05-09T07:53:11.137Z,19.9
2018-05-09T07:53:31.595Z,19.9
2018-05-09T07:53:53.096Z,20
2018-05-09T07:54:13.748Z,20
2018-05-09T07:54:34.273Z,19.8
2018-05-09T07:54:57.615Z,19.9
2018-05-09T07:55:18.603Z,20
2018-05-09T07:55:39.050Z,20
2018-05-09T07:55:59.698Z,20
2018-05-09T07:56:20.144Z,20
2018-05-09T07:56:40.675Z,20.1
2018-05-09T07:57:01.183Z,20.1
2018-05-09T07:57:21.629Z,20
2018-05-09T07:57:42.602Z,20
2018-05-09T07:58:03.183Z,20
2018-05-09T07:58:26.569Z,20.1
2018-05-09T07:58:48.734Z,20.1
2018-05-09T07:59:09.363Z,20.2
2018-05-09T07:59:29.970Z,20.2
2018-05-09T07:59:51.239Z,20.2
2018-05-09T08:00:11.672Z,20.2
2018-05-09T08:00:32.137Z,20.2
2018-05-09T08:00:52.402Z,20.2
2018-05-09T08:01:12.966Z,20.2
2018-05-09T08:01:36.287Z,20.2
2018-05-09T08:01:57.066Z,20.2
2018-05-09T08:02:18.108Z,20.2
2018-05-09T08:02:38.829Z,20.2
2018-05-09T08:03:00.020Z,20.2
2018-05-09T08:03:20.525Z,20.2
2018-05-09T08:03:41.498Z,20.2
2018-05-09T08:04:01.847Z,20.2
2018-05-09T08:04:22.217Z,20.3
2018-05-09T08:04:42.505Z,20.3
2018-05-09T08:05:04.693Z,20.4
2018-05-09T08:05:26.611Z,20.4
2018-05-09T08:05:47.016Z,20.3
2018-05-09T08:06:08.067Z,20.4
2018-05-09T08:06:28.422Z,20.4
2018-05-09T08:06:49.097Z,20.4
2018-05-09T08:07:10.628Z,20.4
2018-05-09T08:07:31.020Z,20.4
2018-05-09T08:07:51.375Z,20.4
2018-05-09T08:08:14.544Z,20.4
2018-05-09T08:08:35.057Z,20.4
2018-05-09T08:08:56.378Z,20.5
2018-05-09T08:09:17.870Z,20.4
2018-05-09T08:09:38.438Z,20.5
2018-05-09T08:09:59.175Z,20.5
2018-05-09T08:10:19.855Z,20.5
2018-05-09T08:10:40.818Z,20.6
2018-05-09T08:11:01.428Z,20.6
2018-05-09T08:11:22.014Z,20.6
2018-05-09T08:11:42.955Z,20.7
2018-05-09T08:12:04.104Z,20.7
2018-05-09T08:12:25.049Z,20.8
2018-05-09T08:12:46.153Z,20.8
2018-05-09T08:13:09.146Z,20.8
2018-05-09T08:13:30.668Z,20.8
2018-05-09T08:13:52.052Z,20.9
2018-05-09T08:14:12.417Z,20.9
2018-05-09T08:14:33.236Z,20.9
2018-05-09T08:14:53.712Z,21
2018-05-09T08:15:14.726Z,21
2018-05-09T08:15:35.311Z,21
2018-05-09T08:15:55.764Z,21
2018-05-09T08:16:16.139Z,21.1
2018-05-09T08:16:36.626Z,21.1
2018-05-09T08:16:57.984Z,21.2
2018-05-09T08:17:18.581Z,21.1
2018-05-09T08:17:38.852Z,21.2
2018-05-09T08:17:59.549Z,21.1
2018-05-09T08:18:20.008Z,21.2
2018-05-09T08:18:40.403Z,21.2
2018-05-09T08:19:01.606Z,21.3
2018-05-09T08:19:23.152Z,21.3
2018-05-09T08:19:44.144Z,21.4
2018-05-09T08:20:05.024Z,21.4
2018-05-09T08:20:26.301Z,21.3
2018-05-09T08:20:46.835Z,21.4
2018-05-09T08:21:07.465Z,21.4
2018-05-09T08:21:28.691Z,21.5
2018-05-09T08:21:49.453Z,21.5
2018-05-09T08:22:10.111Z,21.4
2018-05-09T08:22:32.583Z,21.5
2018-05-09T08:22:53.986Z,21.5
2018-05-09T08:23:14.615Z,21.6
2018-05-09T08:23:35.954Z,21.6
2018-05-09T08:23:56.767Z,21.6
2018-05-09T08:24:17.735Z,21.6
2018-05-09T08:24:38.253Z,21.6
2018-05-09T08:24:58.735Z,21.6
2018-05-09T08:25:19.309Z,21.5
2018-05-09T08:25:39.957Z,21.6
2018-05-09T08:26:00.153Z,21.6
2018-05-09T08:26:21.507Z,21.5
2018-05-09T08:27:04.924Z,21.7
2018-05-09T08:27:27.042Z,21.7
2018-05-09T08:27:47.428Z,21.7
2018-05-09T08:28:08.152Z,21.7
2018-05-09T08:28:28.706Z,21.7
2018-05-09T08:28:50.514Z,21.8
2018-05-09T08:29:11.112Z,21.8
2018-05-09T08:29:32.093Z,21.8
2018-05-09T08:29:53.286Z,21.8
2018-05-09T08:30:14.031Z,21.8
2018-05-09T08:30:34.494Z,21.8
2018-05-09T08:30:54.999Z,21.9
2018-05-09T08:31:16.140Z,21.9
2018-05-09T08:31:36.759Z,21.9
2018-05-09T08:31:57.570Z,21.9
2018-05-09T08:32:19.048Z,21.9
2018-05-09T08:32:41.312Z,21.8
2018-05-09T08:33:02.338Z,21.9
2018-05-09T08:33:23.598Z,21.9
2018-05-09T08:33:45.022Z,21.9
2018-05-09T08:34:05.499Z,21.9
2018-05-09T08:34:25.926Z,22
2018-05-09T08:34:46.510Z,22
2018-05-09T08:35:07.731Z,22.1
2018-05-09T08:35:28.401Z,22
2018-05-09T08:35:49.551Z,22
2018-05-09T08:36:10.131Z,22.1
2018-05-09T08:36:30.733Z,22.1
2018-05-09T08:36:52.294Z,22.1
2018-05-09T08:37:13.394Z,22.2
2018-05-09T08:37:34.050Z,22
2018-05-09T08:37:55.611Z,22.1
2018-05-09T08:38:16.233Z,22.2
2018-05-09T08:38:37.646Z,22.2
2018-05-09T08:38:58.638Z,22.3
2018-05-09T08:39:20.081Z,22.3
2018-05-09T08:39:41.141Z,22.2
2018-05-09T08:40:01.909Z,22.3
2018-05-09T08:40:22.581Z,22.4
2018-05-09T08:40:43.482Z,22.3
2018-05-09T08:41:04.323Z,22.4
2018-05-09T08:41:26.018Z,22.3
2018-05-09T08:41:46.622Z,22.2
2018-05-09T08:42:08.071Z,22.2
2018-05-09T08:42:29.847Z,22.2
2018-05-09T08:42:50.577Z,22.2
2018-05-09T08:43:14.186Z,22.3
2018-05-09T08:43:35.279Z,22.2
2018-05-09T08:43:56.826Z,22.2
2018-05-09T08:44:17.905Z,22.1
2018-05-09T08:44:38.806Z,22.2
2018-05-09T08:44:59.485Z,22.2
2018-05-09T08:45:21.199Z,22.1
2018-05-09T08:45:45.234Z,22
2018-05-09T08:46:09.631Z,22.2
2018-05-09T08:46:31.209Z,22.1
2018-05-09T08:46:52.029Z,22.2
2018-05-09T08:47:13.796Z,22.1
2018-05-09T08:47:36.255Z,22.2
2018-05-09T08:47:57.260Z,22.2
2018-05-09T08:48:18.720Z,22.1
2018-05-09T08:48:39.823Z,22.1
2018-05-09T08:49:00.635Z,22.2
2018-05-09T08:49:22.505Z,22.2
2018-05-09T08:49:43.679Z,22.3
2018-05-09T08:50:04.585Z,22.3
2018-05-09T08:50:25.189Z,22.2
2018-05-09T08:50:46.021Z,22.2
2018-05-09T08:51:06.816Z,22.3
2018-05-09T08:51:27.774Z,22.3
2018-05-09T08:51:55.008Z,22.4
2018-05-09T08:52:15.760Z,22.5
2018-05-09T08:52:36.334Z,22.5
2018-05-09T08:52:57.540Z,22.5
2018-05-09T08:53:18.218Z,22.6
2018-05-09T08:53:39.003Z,22.7
2018-05-09T08:53:59.659Z,22.7
2018-05-09T08:54:20.348Z,22.7
2018-05-09T08:54:42.203Z,22.8
2018-05-09T08:55:03.649Z,22.8
2018-05-09T08:55:24.452Z,22.9
2018-05-09T08:55:45.013Z,22.9
2018-05-09T08:56:05.890Z,22.9
2018-05-09T08:56:26.535Z,23
2018-05-09T08:56:48.027Z,23.1
2018-05-09T08:57:08.870Z,23
2018-05-09T08:57:30.259Z,23.1
2018-05-09T08:57:50.552Z,23.1
2018-05-09T08:58:11.414Z,23.2
2018-05-09T08:58:32.073Z,23.2
2018-05-09T08:58:53.070Z,23.2
2018-05-09T08:59:13.484Z,23.2
2018-05-09T08:59:33.888Z,23.2
2018-05-09T08:59:54.628Z,23.2
2018-05-09T09:00:16.847Z,23.2
2018-05-09T09:00:39.011Z,23.2
2018-05-09T09:00:59.371Z,23.2
2018-05-09T09:01:19.985Z,23.2
2018-05-09T09:01:41.014Z,23.2
2018-05-09T09:02:02.131Z,23.2
2018-05-09T09:02:22.465Z,23.2
2018-05-09T09:02:43.778Z,23.1
2018-05-09T09:03:04.484Z,23.2
2018-05-09T09:03:24.986Z,23.2
2018-05-09T09:03:47.240Z,23.1
2018-05-09T09:04:08.680Z,23.1
2018-05-09T09:04:30.321Z,23.1
2018-05-09T09:04:52.825Z,23
2018-05-09T09:05:13.364Z,23
2018-05-09T09:05:33.569Z,23
2018-05-09T09:05:53.917Z,23
2018-05-09T09:06:14.666Z,23
2018-05-09T09:06:35.241Z,22.9
2018-05-09T09:06:56.246Z,22.9
2018-05-09T09:07:18.841Z,22.9
2018-05-09T09:07:41.755Z,22.9
2018-05-09T09:08:04.682Z,22.9
2018-05-09T09:08:25.585Z,22.9
2018-05-09T09:08:45.840Z,23
2018-05-09T09:09:08.467Z,23
2018-05-09T09:09:28.978Z,23
2018-05-09T09:09:50.144Z,23
2018-05-09T09:10:12.334Z,23
2018-05-09T09:10:32.939Z,23
2018-05-09T09:10:53.575Z,23.1
2018-05-09T09:11:14.080Z,23.1
2018-05-09T09:11:34.659Z,23.1
2018-05-09T09:11:55.723Z,23.1
2018-05-09T09:12:16.498Z,23.1
2018-05-09T09:12:37.169Z,23.1
2018-05-09T09:12:59.820Z,23
2018-05-09T09:13:20.777Z,23
2018-05-09T09:13:41.478Z,23
2018-05-09T09:14:02.416Z,23